ADDS METAR Data INFO
IDs: Format: Raw Decoded Include TAF

Data at: 1842 UTC 17 Oct 2017

KVAY 171754Z AUTO VRB03KT 10SM CLR 14/01 A3030 RMK AO2 SLP259 T01440011 10144 20039 58021
KVAY 171654Z AUTO 18003KT 10SM CLR 12/00 A3032 RMK AO2 SLP266 T01220000
KVAY 171554Z AUTO 00000KT 10SM CLR 11/01 A3035 RMK AO2 SLP275 T01110011
KVAY 171454Z AUTO VRB03KT 10SM CLR 10/02 A3036 RMK AO2 SLP280 T01000017 50006
KVAY 171354Z AUTO 01008KT 320V030 10SM CLR 09/03 A3036 RMK AO2 SLP281 T00890028
KVAY 171254Z AUTO 36005KT 10SM CLR 07/03 A3036 RMK AO2 SLP280 T00720028
KVAY 171154Z AUTO 00000KT 10SM CLR 04/02 A3034 RMK AO2 SLP274 T00390022 10067 20022 51022
KVAY 171054Z AUTO 00000KT 10SM CLR 03/01 A3032 RMK AO2 SLP267 T00280006
KVAY 170954Z AUTO 00000KT 10SM CLR 04/01 A3030 RMK AO2 SLP260 T00390006
KVAY 170854Z AUTO 34003KT 10SM CLR 04/01 A3028 RMK AO2 SLP253 T00440006 53006
KVAY 170754Z AUTO 34004KT 10SM CLR 05/01 A3026 RMK AO2 SLP247 T00500011
KVAY 170654Z AUTO 33004KT 10SM CLR 06/01 A3025 RMK AO2 SLP244 T00560011
KVAY 170554Z AUTO 33006KT 10SM CLR 07/01 A3026 RMK AO2 SLP246 T00670011 10100 20061 51014
KVAY 170454Z AUTO 34005KT 10SM CLR 07/02 A3025 RMK AO2 SLP243 T00670017 402110061
KVAY 170354Z AUTO 36010KT 10SM CLR 08/03 A3024 RMK AO2 SLP239 T00780028
KVAY 170254Z AUTO 36006KT 10SM CLR 07/03 A3022 RMK AO2 SLP232 T00720028 51024
KVAY 170154Z AUTO 00000KT 10SM CLR 07/03 A3020 RMK AO2 SLP226 T00720028
KVAY 170054Z AUTO 35003KT 10SM CLR 09/03 A3017 RMK AO2 SLP215 T00890028
KVAY 162354Z AUTO 00000KT 10SM CLR 09/03 A3015 RMK AO2 SLP209 T00940028 10150 20089 53023
KVAY 162254Z AUTO 33005KT 10SM CLR 12/03 A3013 RMK AO2 SLP201 T01170028
KVAY 162154Z AUTO 34008G17KT 10SM CLR 13/03 A3010 RMK AO2 SLP192 T01330028
KVAY 162054Z AUTO 35008KT 10SM CLR 13/05 A3008 RMK AO2 SLP186 T01330050 51015
KVAY 161954Z AUTO 34012KT 10SM CLR 13/04 A3007 RMK AO2 SLP183 T01330044
KVAY 161854Z AUTO 35012G16KT 10SM CLR 14/05 A3005 RMK AO2 SLP175 T01440050
KVAY 161754Z AUTO 33010G17KT 10SM FEW037 13/05 A3004 RMK AO2 SLP171 60000 T01330050 10156 20128 50000
KVAY 161654Z AUTO 33008KT 10SM CLR 13/06 A3005 RMK AO2 SLP176 T01280056
KVAY 161554Z AUTO 34012KT 10SM FEW036 13/07 A3004 RMK AO2 SLP171 T01330072
KVAY 161454Z AUTO 34011KT 10SM FEW044 13/08 A3004 RMK AO2 SLP171 60000 T01330083 51029
KVAY 161354Z AUTO 34008KT 10SM CLR 14/10 A3001 RMK AO2 RAB03E13 SLP160 P0000 T01440100
KVAY 161254Z AUTO 34009KT 10SM SCT047 OVC120 14/11 A3000 RMK AO2 SLP157 T01440106 $
KVAY 161154Z AUTO 32006KT 10SM BKN120 16/15 A2995 RMK AO2 SLP142 60007 70007 T01560150 10211 20150 51023 $
KVAY 161054Z AUTO 24005KT 10SM FEW033 BKN110 15/15 A2995 RMK AO2 RAE36 SLP141 P0001 T01500150 $
KVAY 160954Z AUTO 22003KT 8SM -RA FEW055 BKN070 OVC090 15/15 A2991 RMK AO2 SLP128 P0004 T01500150 $
KVAY 160854Z AUTO 28003KT 4SM RA BR OVC060 15/13 A2988 RMK AO2 RAB0756E0758B39 SLP118 P0002 60002 T01500133 53011 $
KVAY 160754Z AUTO 31009G20KT 10SM FEW024 BKN040 OVC095 19/16 A2986 RMK AO2 SLP112 T01890156 $
KVAY 160654Z AUTO 32006KT 10SM OVC032 19/17 A2987 RMK AO2 SLP114 T01940167 $
KVAY 160644Z AUTO 31008G17KT 280V340 10SM SCT024 OVC030 19/17 A2987 RMK AO2 T01940167 $